Longueuil, Canada
Current Conditions -  °F | °C
As of 9:00 PM on Tuesday 25 Nov 2014 (Local Time) from CYHU Reporting Station
Overcast Overcast  
Wind Chill: 30°   Ceiling: 3900
Heat Index: 41°   Visibility: 9mi
Dew Point: 27°   Wind: 29mph
Humidity: 57%   Direction: 250°WSW
Pressure: 29.96"   Gusts: NA
Location:  45.54°N, 73.49°W
Report Text: CYHU 260200Z AUTO 25025KT 9SM OVC039 05/M03 A2996 RMK SLP146
Loading
Personal Weather Stations






























Interactive Weather Map New forecast layout! Learn more

10-Day Weather Forecast

Advertisements
Track Severe Weather on mobile